sensor_id;sensor_type;location;lat;lon;timestamp;temperature;humidity
3705;DHT22;1868;48.918;9.438;2023-07-31T00:00:58;16.40;97.40
3705;DHT22;1868;48.918;9.438;2023-07-31T00:03:26;16.30;97.40
3705;DHT22;1868;48.918;9.438;2023-07-31T00:05:55;16.30;97.40
3705;DHT22;1868;48.918;9.438;2023-07-31T00:08:24;16.20;97.40
3705;DHT22;1868;48.918;9.438;2023-07-31T00:10:54;16.20;97.40
3705;DHT22;1868;48.918;9.438;2023-07-31T00:13:23;16.10;97.40
3705;DHT22;1868;48.918;9.438;2023-07-31T00:15:52;16.00;97.40
3705;DHT22;1868;48.918;9.438;2023-07-31T00:18:21;16.00;97.40
3705;DHT22;1868;48.918;9.438;2023-07-31T00:20:50;15.90;97.40
3705;DHT22;1868;48.918;9.438;2023-07-31T00:23:18;15.90;97.40
3705;DHT22;1868;48.918;9.438;2023-07-31T00:25:47;15.80;97.40
3705;DHT22;1868;48.918;9.438;2023-07-31T00:28:17;15.80;97.40
3705;DHT22;1868;48.918;9.438;2023-07-31T00:30:45;15.80;97.40
3705;DHT22;1868;48.918;9.438;2023-07-31T00:33:14;15.70;97.40
3705;DHT22;1868;48.918;9.438;2023-07-31T00:35:42;15.70;97.40
3705;DHT22;1868;48.918;9.438;2023-07-31T00:38:11;15.70;97.40
3705;DHT22;1868;48.918;9.438;2023-07-31T00:40:39;15.70;97.40
3705;DHT22;1868;48.918;9.438;2023-07-31T00:43:08;15.70;97.40
3705;DHT22;1868;48.918;9.438;2023-07-31T00:45:38;15.70;97.40
3705;DHT22;1868;48.918;9.438;2023-07-31T00:48:08;15.70;97.40
3705;DHT22;1868;48.918;9.438;2023-07-31T00:50:36;15.70;97.40
3705;DHT22;1868;48.918;9.438;2023-07-31T00:53:06;15.60;97.40
3705;DHT22;1868;48.918;9.438;2023-07-31T00:55:35;15.60;97.40
3705;DHT22;1868;48.918;9.438;2023-07-31T00:58:03;15.60;97.40
3705;DHT22;1868;48.918;9.438;2023-07-31T01:00:32;15.50;97.40
3705;DHT22;1868;48.918;9.438;2023-07-31T01:03:02;15.50;97.40
3705;DHT22;1868;48.918;9.438;2023-07-31T01:05:39;15.40;97.40
3705;DHT22;1868;48.918;9.438;2023-07-31T01:08:21;15.40;97.40
3705;DHT22;1868;48.918;9.438;2023-07-31T01:10:57;15.30;97.40
3705;DHT22;1868;48.918;9.438;2023-07-31T01:13:31;15.30;97.40
3705;DHT22;1868;48.918;9.438;2023-07-31T01:16:00;15.20;97.40
3705;DHT22;1868;48.918;9.438;2023-07-31T01:18:30;15.20;97.40
3705;DHT22;1868;48.918;9.438;2023-07-31T01:21:15;15.10;97.40
3705;DHT22;1868;48.918;9.438;2023-07-31T01:24:09;15.10;97.40
3705;DHT22;1868;48.918;9.438;2023-07-31T01:26:55;15.10;97.40
3705;DHT22;1868;48.918;9.438;2023-07-31T01:29:35;15.00;97.40
3705;DHT22;1868;48.918;9.438;2023-07-31T01:32:06;15.00;97.40
3705;DHT22;1868;48.918;9.438;2023-07-31T01:34:37;14.90;97.40
3705;DHT22;1868;48.918;9.438;2023-07-31T01:37:06;14.90;97.40
3705;DHT22;1868;48.918;9.438;2023-07-31T01:39:36;14.80;97.40
3705;DHT22;1868;48.918;9.438;2023-07-31T01:42:08;14.80;97.40
3705;DHT22;1868;48.918;9.438;2023-07-31T01:44:37;14.80;97.40
3705;DHT22;1868;48.918;9.438;2023-07-31T01:47:06;14.80;97.40
3705;DHT22;1868;48.918;9.438;2023-07-31T01:49:34;14.70;97.40
3705;DHT22;1868;48.918;9.438;2023-07-31T01:52:04;14.80;97.40
3705;DHT22;1868;48.918;9.438;2023-07-31T01:54:33;14.70;97.40
3705;DHT22;1868;48.918;9.438;2023-07-31T01:57:04;14.70;97.40
3705;DHT22;1868;48.918;9.438;2023-07-31T01:59:35;14.70;97.40
3705;DHT22;1868;48.918;9.438;2023-07-31T02:02:05;14.70;97.40
3705;DHT22;1868;48.918;9.438;2023-07-31T02:04:34;14.70;97.40
3705;DHT22;1868;48.918;9.438;2023-07-31T02:07:03;14.70;97.40
3705;DHT22;1868;48.918;9.438;2023-07-31T02:09:32;14.70;97.40
3705;DHT22;1868;48.918;9.438;2023-07-31T02:12:01;14.70;97.40
3705;DHT22;1868;48.918;9.438;2023-07-31T02:14:30;14.70;97.40
3705;DHT22;1868;48.918;9.438;2023-07-31T02:17:00;14.70;97.40
3705;DHT22;1868;48.918;9.438;2023-07-31T02:19:31;14.80;97.40
3705;DHT22;1868;48.918;9.438;2023-07-31T02:22:03;14.80;97.40
3705;DHT22;1868;48.918;9.438;2023-07-31T02:24:32;14.80;97.40
3705;DHT22;1868;48.918;9.438;2023-07-31T02:27:01;14.80;97.40
3705;DHT22;1868;48.918;9.438;2023-07-31T02:29:30;14.80;97.40
3705;DHT22;1868;48.918;9.438;2023-07-31T02:32:00;14.80;97.40
3705;DHT22;1868;48.918;9.438;2023-07-31T02:34:29;14.80;97.40
3705;DHT22;1868;48.918;9.438;2023-07-31T02:36:57;14.90;97.40
3705;DHT22;1868;48.918;9.438;2023-07-31T02:39:26;14.90;97.40
3705;DHT22;1868;48.918;9.438;2023-07-31T02:41:54;15.00;97.40
3705;DHT22;1868;48.918;9.438;2023-07-31T02:44:23;15.00;97.40
3705;DHT22;1868;48.918;9.438;2023-07-31T02:46:51;15.00;97.40
3705;DHT22;1868;48.918;9.438;2023-07-31T02:49:23;15.10;97.40
3705;DHT22;1868;48.918;9.438;2023-07-31T02:51:51;15.20;97.40
3705;DHT22;1868;48.918;9.438;2023-07-31T02:54:20;15.30;97.40
3705;DHT22;1868;48.918;9.438;2023-07-31T02:56:49;15.30;97.40
3705;DHT22;1868;48.918;9.438;2023-07-31T02:59:18;15.40;97.40
3705;DHT22;1868;48.918;9.438;2023-07-31T03:01:48;15.40;97.40
3705;DHT22;1868;48.918;9.438;2023-07-31T03:04:17;15.50;97.40
3705;DHT22;1868;48.918;9.438;2023-07-31T03:06:47;15.50;97.40
3705;DHT22;1868;48.918;9.438;2023-07-31T03:09:16;15.50;97.40
3705;DHT22;1868;48.918;9.438;2023-07-31T03:11:44;15.50;97.40
3705;DHT22;1868;48.918;9.438;2023-07-31T03:14:13;15.50;97.40
3705;DHT22;1868;48.918;9.438;2023-07-31T03:16:44;15.50;97.40
3705;DHT22;1868;48.918;9.438;2023-07-31T03:19:13;15.50;97.40
3705;DHT22;1868;48.918;9.438;2023-07-31T03:21:42;15.50;97.40
3705;DHT22;1868;48.918;9.438;2023-07-31T03:24:12;15.50;97.40
3705;DHT22;1868;48.918;9.438;2023-07-31T03:26:40;15.40;97.40
3705;DHT22;1868;48.918;9.438;2023-07-31T03:29:09;15.40;97.40
3705;DHT22;1868;48.918;9.438;2023-07-31T03:31:39;15.50;97.40
3705;DHT22;1868;48.918;9.438;2023-07-31T03:34:09;15.50;97.40
3705;DHT22;1868;48.918;9.438;2023-07-31T03:36:39;15.50;97.40
3705;DHT22;1868;48.918;9.438;2023-07-31T03:39:12;15.50;97.40
3705;DHT22;1868;48.918;9.438;2023-07-31T03:41:40;15.50;97.40
3705;DHT22;1868;48.918;9.438;2023-07-31T03:44:10;15.50;97.40
3705;DHT22;1868;48.918;9.438;2023-07-31T03:46:38;15.50;97.40
3705;DHT22;1868;48.918;9.438;2023-07-31T03:49:07;15.50;97.40
3705;DHT22;1868;48.918;9.438;2023-07-31T03:51:36;15.50;97.40
3705;DHT22;1868;48.918;9.438;2023-07-31T03:54:05;15.50;97.40
3705;DHT22;1868;48.918;9.438;2023-07-31T03:56:36;15.50;97.40
3705;DHT22;1868;48.918;9.438;2023-07-31T03:59:06;15.50;97.40
3705;DHT22;1868;48.918;9.438;2023-07-31T04:01:35;15.50;97.40
3705;DHT22;1868;48.918;9.438;2023-07-31T04:04:04;15.50;97.40
3705;DHT22;1868;48.918;9.438;2023-07-31T04:06:33;15.50;97.40
3705;DHT22;1868;48.918;9.438;2023-07-31T04:09:02;15.50;97.40
3705;DHT22;1868;48.918;9.438;2023-07-31T04:11:31;15.50;97.40
3705;DHT22;1868;48.918;9.438;2023-07-31T04:14:01;15.60;97.40
3705;DHT22;1868;48.918;9.438;2023-07-31T04:16:29;15.70;97.40
3705;DHT22;1868;48.918;9.438;2023-07-31T04:18:58;15.70;97.40
3705;DHT22;1868;48.918;9.438;2023-07-31T04:21:27;15.70;97.40
3705;DHT22;1868;48.918;9.438;2023-07-31T04:23:55;15.70;97.40
3705;DHT22;1868;48.918;9.438;2023-07-31T04:26:25;15.80;97.40
3705;DHT22;1868;48.918;9.438;2023-07-31T04:28:56;15.80;97.40
3705;DHT22;1868;48.918;9.438;2023-07-31T04:31:27;15.90;97.40
3705;DHT22;1868;48.918;9.438;2023-07-31T04:33:56;15.90;97.40
3705;DHT22;1868;48.918;9.438;2023-07-31T04:36:25;15.90;97.40
3705;DHT22;1868;48.918;9.438;2023-07-31T04:38:55;15.90;97.40
3705;DHT22;1868;48.918;9.438;2023-07-31T04:41:24;16.00;97.40
3705;DHT22;1868;48.918;9.438;2023-07-31T04:43:53;16.00;97.40
3705;DHT22;1868;48.918;9.438;2023-07-31T04:46:21;16.10;97.40
3705;DHT22;1868;48.918;9.438;2023-07-31T04:48:52;16.20;97.40
3705;DHT22;1868;48.918;9.438;2023-07-31T04:51:20;16.30;97.40
3705;DHT22;1868;48.918;9.438;2023-07-31T04:53:49;16.30;97.40
3705;DHT22;1868;48.918;9.438;2023-07-31T04:56:18;16.40;97.40
3705;DHT22;1868;48.918;9.438;2023-07-31T04:58:48;16.40;97.40
3705;DHT22;1868;48.918;9.438;2023-07-31T05:01:17;16.50;97.40
3705;DHT22;1868;48.918;9.438;2023-07-31T05:03:45;16.50;97.40
3705;DHT22;1868;48.918;9.438;2023-07-31T05:06:16;16.60;97.40
3705;DHT22;1868;48.918;9.438;2023-07-31T05:08:45;16.60;97.40
3705;DHT22;1868;48.918;9.438;2023-07-31T05:11:13;16.70;97.40
3705;DHT22;1868;48.918;9.438;2023-07-31T05:13:42;16.70;97.40
3705;DHT22;1868;48.918;9.438;2023-07-31T05:16:11;16.80;97.40
3705;DHT22;1868;48.918;9.438;2023-07-31T05:18:40;16.80;97.40
3705;DHT22;1868;48.918;9.438;2023-07-31T05:21:08;16.90;97.40
3705;DHT22;1868;48.918;9.438;2023-07-31T05:23:38;17.00;97.40
3705;DHT22;1868;48.918;9.438;2023-07-31T05:26:07;17.00;97.40
3705;DHT22;1868;48.918;9.438;2023-07-31T05:28:37;17.10;97.40
3705;DHT22;1868;48.918;9.438;2023-07-31T05:31:08;17.20;97.40
3705;DHT22;1868;48.918;9.438;2023-07-31T05:33:36;17.20;97.40
3705;DHT22;1868;48.918;9.438;2023-07-31T05:36:05;17.20;97.40
3705;DHT22;1868;48.918;9.438;2023-07-31T05:38:34;17.30;97.40
3705;DHT22;1868;48.918;9.438;2023-07-31T05:41:04;17.30;97.40
3705;DHT22;1868;48.918;9.438;2023-07-31T05:43:32;17.40;97.40
3705;DHT22;1868;48.918;9.438;2023-07-31T05:46:01;17.50;97.40
3705;DHT22;1868;48.918;9.438;2023-07-31T05:51:29;17.70;97.40
3705;DHT22;1868;48.918;9.438;2023-07-31T05:53:58;17.80;97.40
3705;DHT22;1868;48.918;9.438;2023-07-31T05:56:30;17.90;97.40
3705;DHT22;1868;48.918;9.438;2023-07-31T05:59:00;18.10;97.40
3705;DHT22;1868;48.918;9.438;2023-07-31T06:01:30;18.20;97.40
3705;DHT22;1868;48.918;9.438;2023-07-31T06:03:59;18.30;97.40
3705;DHT22;1868;48.918;9.438;2023-07-31T06:06:29;18.40;97.40
3705;DHT22;1868;48.918;9.438;2023-07-31T06:09:00;18.40;97.40
3705;DHT22;1868;48.918;9.438;2023-07-31T06:11:32;18.50;97.40
3705;DHT22;1868;48.918;9.438;2023-07-31T06:14:02;18.60;97.40
3705;DHT22;1868;48.918;9.438;2023-07-31T06:16:30;18.60;97.40
3705;DHT22;1868;48.918;9.438;2023-07-31T06:19:01;18.60;97.40
3705;DHT22;1868;48.918;9.438;2023-07-31T06:21:30;18.80;97.40
3705;DHT22;1868;48.918;9.438;2023-07-31T06:23:58;19.10;97.40
3705;DHT22;1868;48.918;9.438;2023-07-31T06:26:27;19.30;97.40
3705;DHT22;1868;48.918;9.438;2023-07-31T06:28:57;19.50;97.40
3705;DHT22;1868;48.918;9.438;2023-07-31T06:31:27;19.50;97.40
3705;DHT22;1868;48.918;9.438;2023-07-31T06:33:57;19.70;97.40
3705;DHT22;1868;48.918;9.438;2023-07-31T06:36:27;19.80;97.40
3705;DHT22;1868;48.918;9.438;2023-07-31T06:38:55;19.90;97.40
3705;DHT22;1868;48.918;9.438;2023-07-31T06:41:24;20.10;97.40
3705;DHT22;1868;48.918;9.438;2023-07-31T06:43:53;20.30;97.40
3705;DHT22;1868;48.918;9.438;2023-07-31T06:46:23;20.30;97.40
3705;DHT22;1868;48.918;9.438;2023-07-31T06:48:51;20.50;97.40
3705;DHT22;1868;48.918;9.438;2023-07-31T06:51:20;20.70;97.40
3705;DHT22;1868;48.918;9.438;2023-07-31T06:53:49;21.00;97.40
3705;DHT22;1868;48.918;9.438;2023-07-31T06:56:20;21.10;97.40
3705;DHT22;1868;48.918;9.438;2023-07-31T06:58:49;21.20;97.40
3705;DHT22;1868;48.918;9.438;2023-07-31T07:01:18;21.30;97.40
3705;DHT22;1868;48.918;9.438;2023-07-31T07:03:49;21.50;97.40
3705;DHT22;1868;48.918;9.438;2023-07-31T07:06:19;21.60;97.40
3705;DHT22;1868;48.918;9.438;2023-07-31T07:08:47;21.70;97.40
3705;DHT22;1868;48.918;9.438;2023-07-31T07:11:15;21.80;97.40
3705;DHT22;1868;48.918;9.438;2023-07-31T07:13:44;21.80;97.40
3705;DHT22;1868;48.918;9.438;2023-07-31T07:16:14;22.00;97.40
3705;DHT22;1868;48.918;9.438;2023-07-31T07:18:44;22.00;97.40
3705;DHT22;1868;48.918;9.438;2023-07-31T07:21:31;21.90;97.40
3705;DHT22;1868;48.918;9.438;2023-07-31T07:24:00;22.00;97.40
3705;DHT22;1868;48.918;9.438;2023-07-31T07:26:29;22.10;97.40
3705;DHT22;1868;48.918;9.438;2023-07-31T07:28:59;22.30;97.40
3705;DHT22;1868;48.918;9.438;2023-07-31T07:31:29;22.50;97.40
3705;DHT22;1868;48.918;9.438;2023-07-31T07:33:57;22.70;97.20
3705;DHT22;1868;48.918;9.438;2023-07-31T07:36:28;23.00;96.20
3705;DHT22;1868;48.918;9.438;2023-07-31T07:39:00;23.00;94.90
3705;DHT22;1868;48.918;9.438;2023-07-31T07:41:29;23.10;94.80
3705;DHT22;1868;48.918;9.438;2023-07-31T07:43:59;23.00;94.80
3705;DHT22;1868;48.918;9.438;2023-07-31T07:46:27;22.90;94.80
3705;DHT22;1868;48.918;9.438;2023-07-31T07:48:56;22.80;94.90
3705;DHT22;1868;48.918;9.438;2023-07-31T07:51:25;23.00;94.90
3705;DHT22;1868;48.918;9.438;2023-07-31T07:53:55;23.20;94.40
3705;DHT22;1868;48.918;9.438;2023-07-31T07:56:25;23.30;94.10
3705;DHT22;1868;48.918;9.438;2023-07-31T07:58:54;23.40;94.50
3705;DHT22;1868;48.918;9.438;2023-07-31T08:01:24;23.60;94.10
3705;DHT22;1868;48.918;9.438;2023-07-31T08:03:52;23.80;93.00
3705;DHT22;1868;48.918;9.438;2023-07-31T08:06:21;23.90;92.60
3705;DHT22;1868;48.918;9.438;2023-07-31T08:08:50;23.80;92.90
3705;DHT22;1868;48.918;9.438;2023-07-31T08:11:21;23.70;92.50
3705;DHT22;1868;48.918;9.438;2023-07-31T08:13:50;23.50;93.10
3705;DHT22;1868;48.918;9.438;2023-07-31T08:16:18;23.40;93.40
3705;DHT22;1868;48.918;9.438;2023-07-31T08:18:47;23.40;93.30
3705;DHT22;1868;48.918;9.438;2023-07-31T08:21:17;23.30;93.70
3705;DHT22;1868;48.918;9.438;2023-07-31T08:23:47;23.10;92.60
3705;DHT22;1868;48.918;9.438;2023-07-31T08:26:25;23.20;94.10
3705;DHT22;1868;48.918;9.438;2023-07-31T08:28:55;23.30;92.70
3705;DHT22;1868;48.918;9.438;2023-07-31T08:31:24;23.30;92.20
3705;DHT22;1868;48.918;9.438;2023-07-31T08:33:54;23.30;92.00
3705;DHT22;1868;48.918;9.438;2023-07-31T08:36:24;23.30;92.30
3705;DHT22;1868;48.918;9.438;2023-07-31T08:39:03;23.30;91.90
3705;DHT22;1868;48.918;9.438;2023-07-31T08:41:37;23.40;92.20
3705;DHT22;1868;48.918;9.438;2023-07-31T08:44:07;23.60;91.70
3705;DHT22;1868;48.918;9.438;2023-07-31T08:46:39;23.70;91.50
3705;DHT22;1868;48.918;9.438;2023-07-31T08:49:09;23.70;91.50
3705;DHT22;1868;48.918;9.438;2023-07-31T08:51:40;23.90;91.10
3705;DHT22;1868;48.918;9.438;2023-07-31T08:54:09;24.30;89.60
3705;DHT22;1868;48.918;9.438;2023-07-31T08:56:40;24.50;90.40
3705;DHT22;1868;48.918;9.438;2023-07-31T08:59:09;24.70;90.20
3705;DHT22;1868;48.918;9.438;2023-07-31T09:01:47;24.90;88.60
3705;DHT22;1868;48.918;9.438;2023-07-31T09:04:20;25.20;87.50
3705;DHT22;1868;48.918;9.438;2023-07-31T09:06:49;25.30;84.90
3705;DHT22;1868;48.918;9.438;2023-07-31T09:09:20;25.50;85.30
3705;DHT22;1868;48.918;9.438;2023-07-31T09:11:53;25.30;86.90
3705;DHT22;1868;48.918;9.438;2023-07-31T09:14:24;25.30;86.60
3705;DHT22;1868;48.918;9.438;2023-07-31T09:16:54;25.40;87.10
3705;DHT22;1868;48.918;9.438;2023-07-31T09:19:29;25.40;86.60
3705;DHT22;1868;48.918;9.438;2023-07-31T09:21:58;25.30;84.90
3705;DHT22;1868;48.918;9.438;2023-07-31T09:24:28;25.10;85.80
3705;DHT22;1868;48.918;9.438;2023-07-31T09:27:00;24.90;87.30
3705;DHT22;1868;48.918;9.438;2023-07-31T09:29:31;24.90;88.10
3705;DHT22;1868;48.918;9.438;2023-07-31T09:32:00;24.70;86.80
3705;DHT22;1868;48.918;9.438;2023-07-31T09:34:30;24.40;88.20
3705;DHT22;1868;48.918;9.438;2023-07-31T09:37:05;24.40;90.10
3705;DHT22;1868;48.918;9.438;2023-07-31T09:39:45;24.30;89.70
3705;DHT22;1868;48.918;9.438;2023-07-31T09:42:24;24.30;89.40
3705;DHT22;1868;48.918;9.438;2023-07-31T09:44:54;24.20;90.20
3705;DHT22;1868;48.918;9.438;2023-07-31T09:47:26;24.00;90.90
3705;DHT22;1868;48.918;9.438;2023-07-31T09:49:54;24.10;91.20
3705;DHT22;1868;48.918;9.438;2023-07-31T09:52:26;24.10;90.30
3705;DHT22;1868;48.918;9.438;2023-07-31T09:54:55;24.00;90.60
3705;DHT22;1868;48.918;9.438;2023-07-31T09:57:26;24.00;90.90
3705;DHT22;1868;48.918;9.438;2023-07-31T09:59:55;24.00;89.00
3705;DHT22;1868;48.918;9.438;2023-07-31T10:02:24;24.00;90.50
3705;DHT22;1868;48.918;9.438;2023-07-31T10:04:56;24.10;90.10
3705;DHT22;1868;48.918;9.438;2023-07-31T10:07:28;24.30;90.10
3705;DHT22;1868;48.918;9.438;2023-07-31T10:10:01;24.40;90.10
3705;DHT22;1868;48.918;9.438;2023-07-31T10:12:32;24.40;88.10
3705;DHT22;1868;48.918;9.438;2023-07-31T10:15:03;24.50;88.80
3705;DHT22;1868;48.918;9.438;2023-07-31T10:17:33;24.60;88.60
3705;DHT22;1868;48.918;9.438;2023-07-31T10:20:07;24.80;89.00
3705;DHT22;1868;48.918;9.438;2023-07-31T10:22:38;25.10;87.50
3705;DHT22;1868;48.918;9.438;2023-07-31T10:25:08;25.20;87.50
3705;DHT22;1868;48.918;9.438;2023-07-31T10:27:39;25.30;87.90
3705;DHT22;1868;48.918;9.438;2023-07-31T10:30:11;25.30;86.40
3705;DHT22;1868;48.918;9.438;2023-07-31T10:32:47;25.30;84.70
3705;DHT22;1868;48.918;9.438;2023-07-31T10:35:18;25.20;86.00
3705;DHT22;1868;48.918;9.438;2023-07-31T10:37:49;25.20;86.40
3705;DHT22;1868;48.918;9.438;2023-07-31T10:40:19;25.10;86.20
3705;DHT22;1868;48.918;9.438;2023-07-31T10:42:54;24.90;87.30
3705;DHT22;1868;48.918;9.438;2023-07-31T10:45:35;24.80;88.20
3705;DHT22;1868;48.918;9.438;2023-07-31T10:48:06;24.90;88.10
3705;DHT22;1868;48.918;9.438;2023-07-31T10:50:38;25.20;86.60
3705;DHT22;1868;48.918;9.438;2023-07-31T10:53:22;25.50;86.00
3705;DHT22;1868;48.918;9.438;2023-07-31T10:55:52;25.50;85.60
3705;DHT22;1868;48.918;9.438;2023-07-31T10:58:22;25.20;85.30
3705;DHT22;1868;48.918;9.438;2023-07-31T11:00:56;24.90;86.90
3705;DHT22;1868;48.918;9.438;2023-07-31T11:03:27;24.90;88.40
3705;DHT22;1868;48.918;9.438;2023-07-31T11:06:01;25.00;88.40
3705;DHT22;1868;48.918;9.438;2023-07-31T11:08:31;25.10;88.80
3705;DHT22;1868;48.918;9.438;2023-07-31T11:11:05;25.00;87.10
3705;DHT22;1868;48.918;9.438;2023-07-31T11:13:44;25.10;86.40
3705;DHT22;1868;48.918;9.438;2023-07-31T11:16:18;25.40;86.80
3705;DHT22;1868;48.918;9.438;2023-07-31T11:18:48;26.00;84.50
3705;DHT22;1868;48.918;9.438;2023-07-31T11:21:19;26.40;82.10
3705;DHT22;1868;48.918;9.438;2023-07-31T11:23:50;26.90;81.50
3705;DHT22;1868;48.918;9.438;2023-07-31T11:26:20;27.50;78.20
3705;DHT22;1868;48.918;9.438;2023-07-31T11:28:52;28.60;76.30
3705;DHT22;1868;48.918;9.438;2023-07-31T11:31:21;29.50;73.30
3705;DHT22;1868;48.918;9.438;2023-07-31T11:33:50;30.20;68.10
3705;DHT22;1868;48.918;9.438;2023-07-31T11:36:20;30.90;67.00
3705;DHT22;1868;48.918;9.438;2023-07-31T11:38:49;30.50;66.10
3705;DHT22;1868;48.918;9.438;2023-07-31T11:41:20;30.00;66.80
3705;DHT22;1868;48.918;9.438;2023-07-31T11:43:48;29.60;68.70
3705;DHT22;1868;48.918;9.438;2023-07-31T11:46:20;29.70;67.40
3705;DHT22;1868;48.918;9.438;2023-07-31T11:48:49;29.20;69.10
3705;DHT22;1868;48.918;9.438;2023-07-31T11:51:20;28.90;70.90
3705;DHT22;1868;48.918;9.438;2023-07-31T11:53:52;28.80;71.70
3705;DHT22;1868;48.918;9.438;2023-07-31T11:56:23;28.40;73.50
3705;DHT22;1868;48.918;9.438;2023-07-31T11:58:57;28.00;73.70
3705;DHT22;1868;48.918;9.438;2023-07-31T12:01:27;27.60;75.80
3705;DHT22;1868;48.918;9.438;2023-07-31T12:03:57;27.40;75.90
3705;DHT22;1868;48.918;9.438;2023-07-31T12:06:33;27.20;77.10
3705;DHT22;1868;48.918;9.438;2023-07-31T12:09:04;27.60;76.90
3705;DHT22;1868;48.918;9.438;2023-07-31T12:11:43;27.60;77.30
3705;DHT22;1868;48.918;9.438;2023-07-31T12:14:21;27.30;77.80
3705;DHT22;1868;48.918;9.438;2023-07-31T12:16:53;27.40;78.90
3705;DHT22;1868;48.918;9.438;2023-07-31T12:19:23;27.20;76.90
3705;DHT22;1868;48.918;9.438;2023-07-31T12:21:55;27.20;78.00
3705;DHT22;1868;48.918;9.438;2023-07-31T12:24:24;27.30;78.00
3705;DHT22;1868;48.918;9.438;2023-07-31T12:26:54;27.30;78.70
3705;DHT22;1868;48.918;9.438;2023-07-31T12:29:33;27.30;76.30
3705;DHT22;1868;48.918;9.438;2023-07-31T12:32:23;27.00;78.00
3705;DHT22;1868;48.918;9.438;2023-07-31T12:35:00;26.30;79.30
3705;DHT22;1868;48.918;9.438;2023-07-31T12:37:30;25.80;81.50
3705;DHT22;1868;48.918;9.438;2023-07-31T12:40:00;25.90;82.30
3705;DHT22;1868;48.918;9.438;2023-07-31T12:42:36;25.70;84.00
3705;DHT22;1868;48.918;9.438;2023-07-31T12:45:07;25.90;83.20
3705;DHT22;1868;48.918;9.438;2023-07-31T12:47:36;25.70;83.40
3705;DHT22;1868;48.918;9.438;2023-07-31T12:50:05;26.00;84.50
3705;DHT22;1868;48.918;9.438;2023-07-31T12:52:36;26.30;82.70
3705;DHT22;1868;48.918;9.438;2023-07-31T12:55:06;26.90;81.90
3705;DHT22;1868;48.918;9.438;2023-07-31T12:57:36;27.30;81.70
3705;DHT22;1868;48.918;9.438;2023-07-31T13:00:08;27.40;79.90
3705;DHT22;1868;48.918;9.438;2023-07-31T13:02:39;27.10;79.50
3705;DHT22;1868;48.918;9.438;2023-07-31T13:05:08;26.60;79.70
3705;DHT22;1868;48.918;9.438;2023-07-31T13:07:37;26.50;81.40
3705;DHT22;1868;48.918;9.438;2023-07-31T13:10:07;26.40;81.70
3705;DHT22;1868;48.918;9.438;2023-07-31T13:12:36;26.10;83.20
3705;DHT22;1868;48.918;9.438;2023-07-31T13:15:08;26.10;83.00
3705;DHT22;1868;48.918;9.438;2023-07-31T13:17:37;26.00;83.60
3705;DHT22;1868;48.918;9.438;2023-07-31T13:20:07;25.90;85.10
3705;DHT22;1868;48.918;9.438;2023-07-31T13:22:36;25.90;85.30
3705;DHT22;1868;48.918;9.438;2023-07-31T13:25:05;25.80;84.30
3705;DHT22;1868;48.918;9.438;2023-07-31T13:27:35;25.80;85.50
3705;DHT22;1868;48.918;9.438;2023-07-31T13:30:08;25.70;84.90
3705;DHT22;1868;48.918;9.438;2023-07-31T13:32:38;25.60;86.60
3705;DHT22;1868;48.918;9.438;2023-07-31T13:35:08;25.50;87.30
3705;DHT22;1868;48.918;9.438;2023-07-31T13:37:38;25.40;87.10
3705;DHT22;1868;48.918;9.438;2023-07-31T13:40:08;25.30;87.10
3705;DHT22;1868;48.918;9.438;2023-07-31T13:42:39;25.10;85.80
3705;DHT22;1868;48.918;9.438;2023-07-31T13:45:09;25.10;85.60
3705;DHT22;1868;48.918;9.438;2023-07-31T13:47:38;25.20;85.10
3705;DHT22;1868;48.918;9.438;2023-07-31T13:50:07;25.20;85.60
3705;DHT22;1868;48.918;9.438;2023-07-31T13:52:37;25.30;85.10
3705;DHT22;1868;48.918;9.438;2023-07-31T13:55:06;25.20;83.60
3705;DHT22;1868;48.918;9.438;2023-07-31T13:57:35;25.20;82.80
3705;DHT22;1868;48.918;9.438;2023-07-31T14:00:05;25.20;84.00
3705;DHT22;1868;48.918;9.438;2023-07-31T14:02:37;25.20;84.50
3705;DHT22;1868;48.918;9.438;2023-07-31T14:05:08;25.20;84.00
3705;DHT22;1868;48.918;9.438;2023-07-31T14:07:37;25.10;84.30
3705;DHT22;1868;48.918;9.438;2023-07-31T14:10:06;25.00;84.70
3705;DHT22;1868;48.918;9.438;2023-07-31T14:12:35;25.00;84.50
3705;DHT22;1868;48.918;9.438;2023-07-31T14:15:10;25.00;85.50
3705;DHT22;1868;48.918;9.438;2023-07-31T14:17:40;25.00;85.10
3705;DHT22;1868;48.918;9.438;2023-07-31T14:20:11;25.10;84.90
3705;DHT22;1868;48.918;9.438;2023-07-31T14:22:41;25.30;84.90
3705;DHT22;1868;48.918;9.438;2023-07-31T14:25:09;25.50;85.10
3705;DHT22;1868;48.918;9.438;2023-07-31T14:27:38;25.70;84.50
3705;DHT22;1868;48.918;9.438;2023-07-31T14:30:08;25.80;84.10
3705;DHT22;1868;48.918;9.438;2023-07-31T14:32:37;25.70;83.20
3705;DHT22;1868;48.918;9.438;2023-07-31T14:35:08;25.80;83.20
3705;DHT22;1868;48.918;9.438;2023-07-31T14:37:37;26.00;83.20
3705;DHT22;1868;48.918;9.438;2023-07-31T14:40:07;26.10;82.50
3705;DHT22;1868;48.918;9.438;2023-07-31T14:42:37;26.10;82.50
3705;DHT22;1868;48.918;9.438;2023-07-31T14:45:07;26.20;82.30
3705;DHT22;1868;48.918;9.438;2023-07-31T14:47:37;26.30;83.20
3705;DHT22;1868;48.918;9.438;2023-07-31T14:50:08;26.10;84.30
3705;DHT22;1868;48.918;9.438;2023-07-31T14:52:37;26.20;83.40
3705;DHT22;1868;48.918;9.438;2023-07-31T14:55:07;26.10;83.40
3705;DHT22;1868;48.918;9.438;2023-07-31T14:57:36;26.10;84.70
3705;DHT22;1868;48.918;9.438;2023-07-31T15:00:06;26.10;83.60
3705;DHT22;1868;48.918;9.438;2023-07-31T15:02:37;26.10;84.70
3705;DHT22;1868;48.918;9.438;2023-07-31T15:05:08;26.20;84.90
3705;DHT22;1868;48.918;9.438;2023-07-31T15:07:37;26.30;85.30
3705;DHT22;1868;48.918;9.438;2023-07-31T15:10:07;26.30;84.70
3705;DHT22;1868;48.918;9.438;2023-07-31T15:12:36;26.30;84.00
3705;DHT22;1868;48.918;9.438;2023-07-31T15:15:06;26.20;84.00
3705;DHT22;1868;48.918;9.438;2023-07-31T15:17:35;26.20;85.30
3705;DHT22;1868;48.918;9.438;2023-07-31T15:20:05;26.10;86.40
3705;DHT22;1868;48.918;9.438;2023-07-31T15:22:36;26.00;86.90
3705;DHT22;1868;48.918;9.438;2023-07-31T15:25:05;26.10;88.10
3705;DHT22;1868;48.918;9.438;2023-07-31T15:27:34;26.00;87.50
3705;DHT22;1868;48.918;9.438;2023-07-31T15:30:03;26.10;89.00
3705;DHT22;1868;48.918;9.438;2023-07-31T15:32:33;26.10;88.60
3705;DHT22;1868;48.918;9.438;2023-07-31T15:35:02;26.20;86.40
3705;DHT22;1868;48.918;9.438;2023-07-31T15:37:30;26.20;86.40
3705;DHT22;1868;48.918;9.438;2023-07-31T15:40:00;26.20;86.20
3705;DHT22;1868;48.918;9.438;2023-07-31T15:42:29;26.30;86.40
3705;DHT22;1868;48.918;9.438;2023-07-31T15:45:00;26.50;86.20
3705;DHT22;1868;48.918;9.438;2023-07-31T15:47:28;26.50;85.80
3705;DHT22;1868;48.918;9.438;2023-07-31T15:49:57;26.50;86.80
3705;DHT22;1868;48.918;9.438;2023-07-31T15:52:26;26.50;86.90
3705;DHT22;1868;48.918;9.438;2023-07-31T15:54:54;26.40;85.10
3705;DHT22;1868;48.918;9.438;2023-07-31T15:57:24;26.30;86.60
3705;DHT22;1868;48.918;9.438;2023-07-31T15:59:56;26.30;85.50
3705;DHT22;1868;48.918;9.438;2023-07-31T16:02:25;26.40;86.00
3705;DHT22;1868;48.918;9.438;2023-07-31T16:04:54;26.40;86.00
3705;DHT22;1868;48.918;9.438;2023-07-31T16:07:22;26.40;86.80
3705;DHT22;1868;48.918;9.438;2023-07-31T16:09:50;26.40;87.30
3705;DHT22;1868;48.918;9.438;2023-07-31T16:12:19;26.40;87.90
3705;DHT22;1868;48.918;9.438;2023-07-31T16:14:49;26.30;87.30
3705;DHT22;1868;48.918;9.438;2023-07-31T16:17:18;26.30;88.80
3705;DHT22;1868;48.918;9.438;2023-07-31T16:19:46;26.40;87.10
3705;DHT22;1868;48.918;9.438;2023-07-31T16:22:15;26.20;86.90
3705;DHT22;1868;48.918;9.438;2023-07-31T16:24:44;26.10;88.10